sensor_id;sensor_type;location;lat;lon;timestamp;P1;durP1;ratioP1;P2;durP2;ratioP2
19579;SDS011;9936;51.040;13.918;2023-12-28T00:02:27;8.67;;;4.10;;
19579;SDS011;9936;51.040;13.918;2023-12-28T00:06:13;11.67;;;3.90;;
19579;SDS011;9936;51.040;13.918;2023-12-28T00:09:58;7.17;;;3.90;;
19579;SDS011;9936;51.040;13.918;2023-12-28T00:13:44;10.97;;;4.13;;
19579;SDS011;9936;51.040;13.918;2023-12-28T00:17:30;10.30;;;4.57;;
19579;SDS011;9936;51.040;13.918;2023-12-28T00:21:16;11.53;;;4.57;;
19579;SDS011;9936;51.040;13.918;2023-12-28T00:25:01;10.23;;;4.60;;
19579;SDS011;9936;51.040;13.918;2023-12-28T00:28:48;10.37;;;3.90;;
19579;SDS011;9936;51.040;13.918;2023-12-28T00:32:33;7.83;;;4.13;;
19579;SDS011;9936;51.040;13.918;2023-12-28T00:36:19;9.90;;;3.63;;
19579;SDS011;9936;51.040;13.918;2023-12-28T00:40:05;8.70;;;3.80;;
19579;SDS011;9936;51.040;13.918;2023-12-28T00:43:51;6.80;;;3.80;;
19579;SDS011;9936;51.040;13.918;2023-12-28T00:47:37;7.83;;;4.03;;
19579;SDS011;9936;51.040;13.918;2023-12-28T00:51:23;6.83;;;3.90;;
19579;SDS011;9936;51.040;13.918;2023-12-28T00:55:08;7.17;;;3.97;;
19579;SDS011;9936;51.040;13.918;2023-12-28T00:58:56;9.00;;;4.00;;
19579;SDS011;9936;51.040;13.918;2023-12-28T01:02:41;8.70;;;3.93;;
19579;SDS011;9936;51.040;13.918;2023-12-28T01:06:28;8.47;;;3.90;;
19579;SDS011;9936;51.040;13.918;2023-12-28T01:10:13;8.00;;;4.43;;
19579;SDS011;9936;51.040;13.918;2023-12-28T01:13:59;9.63;;;4.23;;
19579;SDS011;9936;51.040;13.918;2023-12-28T01:17:45;7.80;;;4.13;;
19579;SDS011;9936;51.040;13.918;2023-12-28T01:21:30;6.43;;;3.37;;
19579;SDS011;9936;51.040;13.918;2023-12-28T01:25:16;11.57;;;4.17;;
19579;SDS011;9936;51.040;13.918;2023-12-28T01:29:02;8.23;;;4.20;;
19579;SDS011;9936;51.040;13.918;2023-12-28T01:32:48;7.07;;;3.90;;
19579;SDS011;9936;51.040;13.918;2023-12-28T01:36:33;7.07;;;3.97;;
19579;SDS011;9936;51.040;13.918;2023-12-28T01:40:19;9.00;;;4.37;;
19579;SDS011;9936;51.040;13.918;2023-12-28T01:44:05;6.80;;;3.83;;
19579;SDS011;9936;51.040;13.918;2023-12-28T01:47:52;8.13;;;4.10;;
19579;SDS011;9936;51.040;13.918;2023-12-28T01:51:41;9.93;;;4.40;;
19579;SDS011;9936;51.040;13.918;2023-12-28T01:55:28;6.67;;;3.90;;
19579;SDS011;9936;51.040;13.918;2023-12-28T01:59:15;9.20;;;4.27;;
19579;SDS011;9936;51.040;13.918;2023-12-28T02:03:01;5.90;;;3.40;;
19579;SDS011;9936;51.040;13.918;2023-12-28T02:06:47;5.70;;;3.50;;
19579;SDS011;9936;51.040;13.918;2023-12-28T02:10:32;8.13;;;4.03;;
19579;SDS011;9936;51.040;13.918;2023-12-28T02:14:18;9.50;;;4.17;;
19579;SDS011;9936;51.040;13.918;2023-12-28T02:21:52;7.13;;;3.50;;
19579;SDS011;9936;51.040;13.918;2023-12-28T02:25:39;7.83;;;4.03;;
19579;SDS011;9936;51.040;13.918;2023-12-28T02:29:25;8.90;;;4.50;;
19579;SDS011;9936;51.040;13.918;2023-12-28T02:37:35;6.30;;;3.13;;
19579;SDS011;9936;51.040;13.918;2023-12-28T02:41:22;6.17;;;3.37;;
19579;SDS011;9936;51.040;13.918;2023-12-28T02:45:09;5.47;;;2.83;;
19579;SDS011;9936;51.040;13.918;2023-12-28T02:48:55;4.03;;;2.50;;
19579;SDS011;9936;51.040;13.918;2023-12-28T02:52:44;5.17;;;2.03;;
19579;SDS011;9936;51.040;13.918;2023-12-28T02:56:29;2.90;;;1.80;;
19579;SDS011;9936;51.040;13.918;2023-12-28T03:00:17;3.63;;;2.27;;
19579;SDS011;9936;51.040;13.918;2023-12-28T03:04:03;5.07;;;2.53;;
19579;SDS011;9936;51.040;13.918;2023-12-28T03:07:48;2.90;;;1.90;;
19579;SDS011;9936;51.040;13.918;2023-12-28T03:11:34;5.03;;;2.20;;
19579;SDS011;9936;51.040;13.918;2023-12-28T03:15:20;5.40;;;2.40;;
19579;SDS011;9936;51.040;13.918;2023-12-28T03:19:06;5.20;;;2.47;;
19579;SDS011;9936;51.040;13.918;2023-12-28T03:22:51;3.87;;;2.33;;
19579;SDS011;9936;51.040;13.918;2023-12-28T03:26:38;5.90;;;3.00;;
19579;SDS011;9936;51.040;13.918;2023-12-28T03:30:23;1.33;;;1.10;;
19579;SDS011;9936;51.040;13.918;2023-12-28T03:34:09;1.23;;;0.80;;
19579;SDS011;9936;51.040;13.918;2023-12-28T03:37:55;3.07;;;1.60;;
19579;SDS011;9936;51.040;13.918;2023-12-28T03:41:40;7.00;;;3.23;;
19579;SDS011;9936;51.040;13.918;2023-12-28T03:45:26;9.57;;;3.87;;
19579;SDS011;9936;51.040;13.918;2023-12-28T03:49:11;6.80;;;3.50;;
19579;SDS011;9936;51.040;13.918;2023-12-28T03:52:57;5.60;;;3.30;;
19579;SDS011;9936;51.040;13.918;2023-12-28T03:56:44;2.77;;;1.40;;
19579;SDS011;9936;51.040;13.918;2023-12-28T04:00:30;2.17;;;1.10;;
19579;SDS011;9936;51.040;13.918;2023-12-28T04:04:16;1.93;;;1.00;;
19579;SDS011;9936;51.040;13.918;2023-12-28T04:08:02;3.27;;;1.97;;
19579;SDS011;9936;51.040;13.918;2023-12-28T04:11:47;3.27;;;2.10;;
19579;SDS011;9936;51.040;13.918;2023-12-28T04:15:33;5.07;;;2.77;;
19579;SDS011;9936;51.040;13.918;2023-12-28T04:19:19;9.33;;;2.90;;
19579;SDS011;9936;51.040;13.918;2023-12-28T04:23:07;4.30;;;2.37;;
19579;SDS011;9936;51.040;13.918;2023-12-28T04:26:54;3.57;;;2.00;;
19579;SDS011;9936;51.040;13.918;2023-12-28T04:30:40;3.40;;;2.20;;
19579;SDS011;9936;51.040;13.918;2023-12-28T04:34:25;5.57;;;2.20;;
19579;SDS011;9936;51.040;13.918;2023-12-28T04:38:11;3.50;;;2.17;;
19579;SDS011;9936;51.040;13.918;2023-12-28T04:41:57;5.53;;;2.47;;
19579;SDS011;9936;51.040;13.918;2023-12-28T04:45:43;4.63;;;2.50;;
19579;SDS011;9936;51.040;13.918;2023-12-28T04:49:29;5.40;;;3.00;;
19579;SDS011;9936;51.040;13.918;2023-12-28T04:53:22;4.63;;;2.60;;
19579;SDS011;9936;51.040;13.918;2023-12-28T04:57:08;3.60;;;1.90;;
19579;SDS011;9936;51.040;13.918;2023-12-28T05:00:54;3.10;;;1.80;;
19579;SDS011;9936;51.040;13.918;2023-12-28T05:04:39;2.50;;;1.80;;
19579;SDS011;9936;51.040;13.918;2023-12-28T05:08:25;2.57;;;1.60;;
19579;SDS011;9936;51.040;13.918;2023-12-28T05:12:10;2.53;;;1.90;;
19579;SDS011;9936;51.040;13.918;2023-12-28T05:15:56;4.13;;;1.70;;
19579;SDS011;9936;51.040;13.918;2023-12-28T05:19:42;3.43;;;1.90;;
19579;SDS011;9936;51.040;13.918;2023-12-28T05:23:27;2.07;;;1.43;;
19579;SDS011;9936;51.040;13.918;2023-12-28T05:27:13;3.37;;;1.50;;
19579;SDS011;9936;51.040;13.918;2023-12-28T05:30:58;2.57;;;1.63;;
19579;SDS011;9936;51.040;13.918;2023-12-28T05:34:44;2.90;;;1.50;;
19579;SDS011;9936;51.040;13.918;2023-12-28T05:38:29;4.03;;;1.60;;
19579;SDS011;9936;51.040;13.918;2023-12-28T05:42:15;2.40;;;1.77;;
19579;SDS011;9936;51.040;13.918;2023-12-28T05:46:01;2.07;;;1.33;;
19579;SDS011;9936;51.040;13.918;2023-12-28T05:49:46;4.50;;;1.27;;
19579;SDS011;9936;51.040;13.918;2023-12-28T05:53:32;2.40;;;1.30;;
19579;SDS011;9936;51.040;13.918;2023-12-28T05:57:17;2.47;;;1.40;;
19579;SDS011;9936;51.040;13.918;2023-12-28T06:01:11;1.57;;;1.20;;
19579;SDS011;9936;51.040;13.918;2023-12-28T06:04:57;3.33;;;1.50;;
19579;SDS011;9936;51.040;13.918;2023-12-28T06:08:42;1.67;;;1.03;;
19579;SDS011;9936;51.040;13.918;2023-12-28T06:12:28;1.83;;;1.20;;
19579;SDS011;9936;51.040;13.918;2023-12-28T06:16:14;3.00;;;1.40;;
19579;SDS011;9936;51.040;13.918;2023-12-28T06:19:59;2.90;;;1.33;;
19579;SDS011;9936;51.040;13.918;2023-12-28T06:23:45;3.17;;;1.40;;
19579;SDS011;9936;51.040;13.918;2023-12-28T06:27:30;1.97;;;1.10;;
19579;SDS011;9936;51.040;13.918;2023-12-28T06:31:16;3.53;;;1.10;;
19579;SDS011;9936;51.040;13.918;2023-12-28T06:35:02;2.07;;;1.30;;
19579;SDS011;9936;51.040;13.918;2023-12-28T06:38:48;2.77;;;1.17;;
19579;SDS011;9936;51.040;13.918;2023-12-28T06:42:33;5.53;;;1.23;;
19579;SDS011;9936;51.040;13.918;2023-12-28T06:46:19;1.47;;;1.30;;
19579;SDS011;9936;51.040;13.918;2023-12-28T06:50:05;3.93;;;1.60;;
19579;SDS011;9936;51.040;13.918;2023-12-28T06:53:51;2.60;;;1.37;;
19579;SDS011;9936;51.040;13.918;2023-12-28T06:57:37;4.77;;;1.37;;
19579;SDS011;9936;51.040;13.918;2023-12-28T07:01:22;2.23;;;1.60;;
19579;SDS011;9936;51.040;13.918;2023-12-28T07:05:09;4.13;;;1.60;;
19579;SDS011;9936;51.040;13.918;2023-12-28T07:08:54;3.33;;;2.03;;
19579;SDS011;9936;51.040;13.918;2023-12-28T07:12:40;2.93;;;1.60;;
19579;SDS011;9936;51.040;13.918;2023-12-28T07:16:26;3.10;;;1.60;;
19579;SDS011;9936;51.040;13.918;2023-12-28T07:20:11;2.30;;;1.40;;
19579;SDS011;9936;51.040;13.918;2023-12-28T07:27:51;2.13;;;1.50;;
19579;SDS011;9936;51.040;13.918;2023-12-28T07:31:38;2.47;;;1.23;;
19579;SDS011;9936;51.040;13.918;2023-12-28T07:35:23;2.57;;;1.20;;
19579;SDS011;9936;51.040;13.918;2023-12-28T07:39:21;2.47;;;1.50;;
19579;SDS011;9936;51.040;13.918;2023-12-28T07:43:07;2.13;;;1.60;;
19579;SDS011;9936;51.040;13.918;2023-12-28T07:46:54;3.90;;;1.73;;
19579;SDS011;9936;51.040;13.918;2023-12-28T07:50:39;2.37;;;1.50;;
19579;SDS011;9936;51.040;13.918;2023-12-28T07:54:26;2.30;;;1.40;;
19579;SDS011;9936;51.040;13.918;2023-12-28T07:58:12;2.33;;;1.53;;
19579;SDS011;9936;51.040;13.918;2023-12-28T08:01:57;1.70;;;1.23;;
19579;SDS011;9936;51.040;13.918;2023-12-28T08:05:48;2.97;;;1.47;;
19579;SDS011;9936;51.040;13.918;2023-12-28T08:09:34;1.87;;;1.30;;
19579;SDS011;9936;51.040;13.918;2023-12-28T08:13:20;4.67;;;1.60;;
19579;SDS011;9936;51.040;13.918;2023-12-28T08:17:05;3.80;;;1.37;;
19579;SDS011;9936;51.040;13.918;2023-12-28T08:20:51;2.23;;;1.40;;
19579;SDS011;9936;51.040;13.918;2023-12-28T08:24:37;2.93;;;1.47;;
19579;SDS011;9936;51.040;13.918;2023-12-28T08:28:22;2.40;;;1.40;;
19579;SDS011;9936;51.040;13.918;2023-12-28T08:32:08;3.00;;;1.30;;
19579;SDS011;9936;51.040;13.918;2023-12-28T08:35:55;2.23;;;1.60;;
19579;SDS011;9936;51.040;13.918;2023-12-28T08:39:41;2.23;;;1.60;;
19579;SDS011;9936;51.040;13.918;2023-12-28T08:43:26;2.20;;;1.67;;
19579;SDS011;9936;51.040;13.918;2023-12-28T08:47:15;3.60;;;2.60;;
19579;SDS011;9936;51.040;13.918;2023-12-28T08:51:11;2.33;;;1.57;;
19579;SDS011;9936;51.040;13.918;2023-12-28T08:54:59;2.80;;;1.60;;
19579;SDS011;9936;51.040;13.918;2023-12-28T08:58:46;2.87;;;1.80;;
19579;SDS011;9936;51.040;13.918;2023-12-28T09:02:33;2.77;;;1.87;;
19579;SDS011;9936;51.040;13.918;2023-12-28T09:06:19;3.93;;;1.80;;
19579;SDS011;9936;51.040;13.918;2023-12-28T09:10:07;2.77;;;1.67;;
19579;SDS011;9936;51.040;13.918;2023-12-28T09:13:55;3.20;;;1.77;;
19579;SDS011;9936;51.040;13.918;2023-12-28T09:17:40;3.37;;;1.67;;
19579;SDS011;9936;51.040;13.918;2023-12-28T09:21:27;2.30;;;1.33;;
19579;SDS011;9936;51.040;13.918;2023-12-28T09:25:14;2.23;;;1.50;;
19579;SDS011;9936;51.040;13.918;2023-12-28T09:28:59;3.37;;;1.53;;
19579;SDS011;9936;51.040;13.918;2023-12-28T09:32:45;4.13;;;1.33;;
19579;SDS011;9936;51.040;13.918;2023-12-28T09:36:30;2.10;;;1.60;;
19579;SDS011;9936;51.040;13.918;2023-12-28T09:40:16;2.40;;;1.30;;
19579;SDS011;9936;51.040;13.918;2023-12-28T09:44:18;1.77;;;1.53;;
19579;SDS011;9936;51.040;13.918;2023-12-28T09:48:05;3.33;;;1.47;;
19579;SDS011;9936;51.040;13.918;2023-12-28T09:51:51;2.57;;;1.60;;
19579;SDS011;9936;51.040;13.918;2023-12-28T09:55:38;2.93;;;1.50;;
19579;SDS011;9936;51.040;13.918;2023-12-28T09:59:24;3.97;;;2.30;;
19579;SDS011;9936;51.040;13.918;2023-12-28T10:03:15;1.90;;;1.67;;
19579;SDS011;9936;51.040;13.918;2023-12-28T10:07:02;3.50;;;1.50;;
19579;SDS011;9936;51.040;13.918;2023-12-28T10:10:48;5.50;;;1.70;;
19579;SDS011;9936;51.040;13.918;2023-12-28T10:14:39;2.10;;;1.63;;
19579;SDS011;9936;51.040;13.918;2023-12-28T10:18:24;2.87;;;1.20;;
19579;SDS011;9936;51.040;13.918;2023-12-28T10:22:11;4.90;;;1.37;;
19579;SDS011;9936;51.040;13.918;2023-12-28T10:25:59;4.97;;;2.07;;
19579;SDS011;9936;51.040;13.918;2023-12-28T10:29:44;5.60;;;1.83;;
19579;SDS011;9936;51.040;13.918;2023-12-28T10:33:36;3.20;;;1.63;;
19579;SDS011;9936;51.040;13.918;2023-12-28T10:37:28;2.30;;;1.40;;
19579;SDS011;9936;51.040;13.918;2023-12-28T10:41:16;1.87;;;1.30;;
19579;SDS011;9936;51.040;13.918;2023-12-28T10:45:06;2.20;;;1.47;;
19579;SDS011;9936;51.040;13.918;2023-12-28T10:49:05;3.20;;;1.50;;
19579;SDS011;9936;51.040;13.918;2023-12-28T10:52:56;4.73;;;2.27;;
19579;SDS011;9936;51.040;13.918;2023-12-28T10:56:54;7.70;;;6.07;;
19579;SDS011;9936;51.040;13.918;2023-12-28T11:00:47;3.67;;;2.57;;
19579;SDS011;9936;51.040;13.918;2023-12-28T11:04:50;6.57;;;3.57;;
